sensor_id;sensor_type;location;lat;lon;timestamp;temperature;humidity
70151;DHT22;57517;43.562;19.540;2022-12-18T00:01:01;179.40;2252.80
70151;DHT22;57517;43.562;19.540;2022-12-18T00:03:35;179.50;2252.80
70151;DHT22;57517;43.562;19.540;2022-12-18T00:06:01;179.30;2252.80
70151;DHT22;57517;43.562;19.540;2022-12-18T00:08:27;179.30;2252.80
70151;DHT22;57517;43.562;19.540;2022-12-18T00:10:53;179.30;2252.80
70151;DHT22;57517;43.562;19.540;2022-12-18T00:13:19;179.20;2252.80
70151;DHT22;57517;43.562;19.540;2022-12-18T00:15:45;179.20;2252.80
70151;DHT22;57517;43.562;19.540;2022-12-18T00:18:11;154.50;2252.80
70151;DHT22;57517;43.562;19.540;2022-12-18T00:20:38;154.50;2252.80
70151;DHT22;57517;43.562;19.540;2022-12-18T00:23:06;154.50;2252.80
70151;DHT22;57517;43.562;19.540;2022-12-18T00:25:36;154.50;2252.80
70151;DHT22;57517;43.562;19.540;2022-12-18T00:28:03;154.40;2252.80
70151;DHT22;57517;43.562;19.540;2022-12-18T00:30:29;154.40;2252.80
70151;DHT22;57517;43.562;19.540;2022-12-18T00:32:55;154.40;2252.80
70151;DHT22;57517;43.562;19.540;2022-12-18T00:35:22;154.40;2252.80
70151;DHT22;57517;43.562;19.540;2022-12-18T00:37:48;154.30;2252.80
70151;DHT22;57517;43.562;19.540;2022-12-18T00:40:14;154.30;2252.80
70151;DHT22;57517;43.562;19.540;2022-12-18T00:42:39;154.40;2252.80
70151;DHT22;57517;43.562;19.540;2022-12-18T00:45:21;154.40;2252.80
70151;DHT22;57517;43.562;19.540;2022-12-18T00:47:50;154.40;2252.80
70151;DHT22;57517;43.562;19.540;2022-12-18T00:50:16;154.30;2252.80
70151;DHT22;57517;43.562;19.540;2022-12-18T00:52:42;154.30;2252.80
70151;DHT22;57517;43.562;19.540;2022-12-18T00:55:08;154.40;2252.80
70151;DHT22;57517;43.562;19.540;2022-12-18T00:57:34;154.40;2252.80
70151;DHT22;57517;43.562;19.540;2022-12-18T01:00:00;154.50;2252.80
70151;DHT22;57517;43.562;19.540;2022-12-18T01:02:26;154.50;2252.80
70151;DHT22;57517;43.562;19.540;2022-12-18T01:04:51;154.50;2252.80
70151;DHT22;57517;43.562;19.540;2022-12-18T01:07:17;154.40;2252.80
70151;DHT22;57517;43.562;19.540;2022-12-18T01:09:43;154.50;2252.80
70151;DHT22;57517;43.562;19.540;2022-12-18T01:12:09;179.20;2252.80
70151;DHT22;57517;43.562;19.540;2022-12-18T01:14:35;179.20;2252.80
70151;DHT22;57517;43.562;19.540;2022-12-18T01:17:01;154.50;2252.80
70151;DHT22;57517;43.562;19.540;2022-12-18T01:19:29;154.50;2252.80
70151;DHT22;57517;43.562;19.540;2022-12-18T01:21:55;154.50;2252.80
70151;DHT22;57517;43.562;19.540;2022-12-18T01:24:20;154.40;2252.80
70151;DHT22;57517;43.562;19.540;2022-12-18T01:26:46;154.50;2252.80
70151;DHT22;57517;43.562;19.540;2022-12-18T01:29:12;154.40;2252.80
70151;DHT22;57517;43.562;19.540;2022-12-18T01:31:38;154.50;2252.80
70151;DHT22;57517;43.562;19.540;2022-12-18T01:34:05;154.50;2252.80
70151;DHT22;57517;43.562;19.540;2022-12-18T01:36:36;154.50;2252.80
70151;DHT22;57517;43.562;19.540;2022-12-18T01:39:11;154.50;2252.80
70151;DHT22;57517;43.562;19.540;2022-12-18T01:41:37;154.40;2252.80
70151;DHT22;57517;43.562;19.540;2022-12-18T01:48:05;154.40;2252.80
70151;DHT22;57517;43.562;19.540;2022-12-18T01:50:17;154.30;2252.80
70151;DHT22;57517;43.562;19.540;2022-12-18T01:52:49;154.30;2252.80
70151;DHT22;57517;43.562;19.540;2022-12-18T01:55:19;154.20;2252.80
70151;DHT22;57517;43.562;19.540;2022-12-18T01:57:46;154.20;2252.80
70151;DHT22;57517;43.562;19.540;2022-12-18T02:00:16;154.20;2252.80
70151;DHT22;57517;43.562;19.540;2022-12-18T02:02:44;154.20;2252.80
70151;DHT22;57517;43.562;19.540;2022-12-18T02:05:12;154.20;2252.80
70151;DHT22;57517;43.562;19.540;2022-12-18T02:07:45;154.10;2252.80
70151;DHT22;57517;43.562;19.540;2022-12-18T02:10:15;154.10;2252.80
70151;DHT22;57517;43.562;19.540;2022-12-18T02:12:57;154.00;2252.80
70151;DHT22;57517;43.562;19.540;2022-12-18T02:15:54;154.00;2252.80
70151;DHT22;57517;43.562;19.540;2022-12-18T02:18:28;153.90;2252.80
70151;DHT22;57517;43.562;19.540;2022-12-18T02:23:56;153.90;2252.80
70151;DHT22;57517;43.562;19.540;2022-12-18T02:26:41;153.90;2252.80
70151;DHT22;57517;43.562;19.540;2022-12-18T02:29:15;153.90;2252.80
70151;DHT22;57517;43.562;19.540;2022-12-18T02:31:51;153.90;2252.80
70151;DHT22;57517;43.562;19.540;2022-12-18T02:34:18;153.90;2252.80
70151;DHT22;57517;43.562;19.540;2022-12-18T02:36:46;153.90;2252.80
70151;DHT22;57517;43.562;19.540;2022-12-18T02:39:14;154.00;2252.80
70151;DHT22;57517;43.562;19.540;2022-12-18T02:41:41;154.00;2252.80
70151;DHT22;57517;43.562;19.540;2022-12-18T02:44:10;154.00;2252.80
70151;DHT22;57517;43.562;19.540;2022-12-18T02:46:41;153.90;2252.80
70151;DHT22;57517;43.562;19.540;2022-12-18T02:54:23;153.90;2252.80
70151;DHT22;57517;43.562;19.540;2022-12-18T02:56:54;153.90;2252.80
70151;DHT22;57517;43.562;19.540;2022-12-18T02:59:47;153.90;2252.80
70151;DHT22;57517;43.562;19.540;2022-12-18T03:02:17;153.90;2252.80
70151;DHT22;57517;43.562;19.540;2022-12-18T03:04:55;153.90;2252.80
70151;DHT22;57517;43.562;19.540;2022-12-18T03:10:25;153.90;2252.80
70151;DHT22;57517;43.562;19.540;2022-12-18T03:13:00;153.90;2252.80
70151;DHT22;57517;43.562;19.540;2022-12-18T03:15:34;153.90;2252.80
70151;DHT22;57517;43.562;19.540;2022-12-18T03:18:07;153.90;2252.80
70151;DHT22;57517;43.562;19.540;2022-12-18T03:20:37;153.90;2252.80
70151;DHT22;57517;43.562;19.540;2022-12-18T03:23:09;153.90;2252.80
70151;DHT22;57517;43.562;19.540;2022-12-18T03:25:40;153.90;2252.80
70151;DHT22;57517;43.562;19.540;2022-12-18T03:28:12;153.90;2252.80
70151;DHT22;57517;43.562;19.540;2022-12-18T03:30:40;153.90;2252.80
70151;DHT22;57517;43.562;19.540;2022-12-18T03:33:29;153.80;2252.80
70151;DHT22;57517;43.562;19.540;2022-12-18T03:35:56;153.90;2252.80
70151;DHT22;57517;43.562;19.540;2022-12-18T03:38:22;153.90;2252.80
70151;DHT22;57517;43.562;19.540;2022-12-18T03:41:14;153.90;2252.80
70151;DHT22;57517;43.562;19.540;2022-12-18T03:44:13;153.90;2252.80
70151;DHT22;57517;43.562;19.540;2022-12-18T03:49:26;153.90;2252.80
70151;DHT22;57517;43.562;19.540;2022-12-18T03:54:47;153.90;2252.80
70151;DHT22;57517;43.562;19.540;2022-12-18T03:57:22;153.90;2252.80
70151;DHT22;57517;43.562;19.540;2022-12-18T03:59:56;153.90;2252.80
70151;DHT22;57517;43.562;19.540;2022-12-18T04:02:23;153.80;2252.80
70151;DHT22;57517;43.562;19.540;2022-12-18T04:04:52;153.80;2252.80
70151;DHT22;57517;43.562;19.540;2022-12-18T04:07:20;153.80;2252.80
70151;DHT22;57517;43.562;19.540;2022-12-18T04:09:48;153.80;2252.80
70151;DHT22;57517;43.562;19.540;2022-12-18T04:12:14;153.90;2252.80
70151;DHT22;57517;43.562;19.540;2022-12-18T04:14:40;153.90;2252.80
70151;DHT22;57517;43.562;19.540;2022-12-18T04:17:06;153.90;2252.80
70151;DHT22;57517;43.562;19.540;2022-12-18T04:19:32;153.80;2252.80
70151;DHT22;57517;43.562;19.540;2022-12-18T04:21:58;153.90;2252.80
70151;DHT22;57517;43.562;19.540;2022-12-18T04:24:23;153.90;2252.80
70151;DHT22;57517;43.562;19.540;2022-12-18T04:26:49;153.90;2252.80
70151;DHT22;57517;43.562;19.540;2022-12-18T04:29:15;154.00;2252.80
70151;DHT22;57517;43.562;19.540;2022-12-18T04:31:41;153.90;2252.80
70151;DHT22;57517;43.562;19.540;2022-12-18T04:34:06;153.90;2252.80
70151;DHT22;57517;43.562;19.540;2022-12-18T04:36:32;153.90;2252.80
70151;DHT22;57517;43.562;19.540;2022-12-18T04:38:58;153.90;2252.80
70151;DHT22;57517;43.562;19.540;2022-12-18T04:41:24;153.90;2252.80
70151;DHT22;57517;43.562;19.540;2022-12-18T04:43:49;153.90;2252.80
70151;DHT22;57517;43.562;19.540;2022-12-18T04:46:15;153.80;2252.80
70151;DHT22;57517;43.562;19.540;2022-12-18T04:48:41;153.90;2252.80
70151;DHT22;57517;43.562;19.540;2022-12-18T04:51:07;154.00;2252.80
70151;DHT22;57517;43.562;19.540;2022-12-18T04:53:33;153.90;2252.80
70151;DHT22;57517;43.562;19.540;2022-12-18T04:56:05;154.00;2252.80
70151;DHT22;57517;43.562;19.540;2022-12-18T04:58:31;154.00;2252.80
70151;DHT22;57517;43.562;19.540;2022-12-18T05:00:57;154.00;2252.80
70151;DHT22;57517;43.562;19.540;2022-12-18T05:03:23;154.00;2252.80
70151;DHT22;57517;43.562;19.540;2022-12-18T05:05:52;154.10;2252.80
70151;DHT22;57517;43.562;19.540;2022-12-18T05:08:18;154.20;2252.80
70151;DHT22;57517;43.562;19.540;2022-12-18T05:10:44;154.30;2252.80
70151;DHT22;57517;43.562;19.540;2022-12-18T05:13:10;154.30;2252.80
70151;DHT22;57517;43.562;19.540;2022-12-18T05:15:36;154.30;2252.80
70151;DHT22;57517;43.562;19.540;2022-12-18T05:18:02;154.30;2252.80
70151;DHT22;57517;43.562;19.540;2022-12-18T05:20:29;154.30;2252.80
70151;DHT22;57517;43.562;19.540;2022-12-18T05:22:55;154.40;2252.80
70151;DHT22;57517;43.562;19.540;2022-12-18T05:25:22;154.30;2252.80
70151;DHT22;57517;43.562;19.540;2022-12-18T05:27:48;154.30;2252.80
70151;DHT22;57517;43.562;19.540;2022-12-18T05:30:15;154.30;2252.80
70151;DHT22;57517;43.562;19.540;2022-12-18T05:32:41;154.30;2252.80
70151;DHT22;57517;43.562;19.540;2022-12-18T05:35:08;154.30;2252.80
70151;DHT22;57517;43.562;19.540;2022-12-18T05:37:34;154.30;2252.80
70151;DHT22;57517;43.562;19.540;2022-12-18T05:40:01;154.30;2252.80
70151;DHT22;57517;43.562;19.540;2022-12-18T05:42:27;154.30;2252.80
70151;DHT22;57517;43.562;19.540;2022-12-18T05:44:53;154.30;2252.80
70151;DHT22;57517;43.562;19.540;2022-12-18T05:47:19;154.30;2252.80
70151;DHT22;57517;43.562;19.540;2022-12-18T05:49:45;154.30;2252.80
70151;DHT22;57517;43.562;19.540;2022-12-18T05:52:10;154.30;2252.80
70151;DHT22;57517;43.562;19.540;2022-12-18T05:54:36;154.20;2252.80
70151;DHT22;57517;43.562;19.540;2022-12-18T05:57:02;154.20;2252.80
70151;DHT22;57517;43.562;19.540;2022-12-18T05:59:28;154.20;2252.80
70151;DHT22;57517;43.562;19.540;2022-12-18T06:01:53;154.20;2252.80
70151;DHT22;57517;43.562;19.540;2022-12-18T06:04:19;154.20;2252.80
70151;DHT22;57517;43.562;19.540;2022-12-18T06:06:45;154.20;2252.80
70151;DHT22;57517;43.562;19.540;2022-12-18T06:09:11;154.20;2252.80
70151;DHT22;57517;43.562;19.540;2022-12-18T06:11:37;154.20;2252.80
70151;DHT22;57517;43.562;19.540;2022-12-18T06:14:04;154.20;2252.80
70151;DHT22;57517;43.562;19.540;2022-12-18T06:16:31;154.30;2252.80
70151;DHT22;57517;43.562;19.540;2022-12-18T06:18:58;154.20;2252.80
70151;DHT22;57517;43.562;19.540;2022-12-18T06:21:24;154.20;2252.80
70151;DHT22;57517;43.562;19.540;2022-12-18T06:23:49;154.10;2252.80
70151;DHT22;57517;43.562;19.540;2022-12-18T06:26:15;154.10;2252.80
70151;DHT22;57517;43.562;19.540;2022-12-18T06:28:42;154.10;2252.80
70151;DHT22;57517;43.562;19.540;2022-12-18T06:31:08;154.20;2252.80
70151;DHT22;57517;43.562;19.540;2022-12-18T06:33:34;154.20;2252.80
70151;DHT22;57517;43.562;19.540;2022-12-18T06:38:33;154.30;2252.80
70151;DHT22;57517;43.562;19.540;2022-12-18T06:40:59;154.30;2252.80
70151;DHT22;57517;43.562;19.540;2022-12-18T06:43:24;154.30;2252.80
70151;DHT22;57517;43.562;19.540;2022-12-18T06:45:50;154.30;2252.80
70151;DHT22;57517;43.562;19.540;2022-12-18T06:48:21;154.30;2252.80
70151;DHT22;57517;43.562;19.540;2022-12-18T06:50:46;154.20;2252.80
70151;DHT22;57517;43.562;19.540;2022-12-18T06:53:12;154.20;2252.80
70151;DHT22;57517;43.562;19.540;2022-12-18T06:55:38;154.20;2252.80
70151;DHT22;57517;43.562;19.540;2022-12-18T06:58:04;154.20;2252.80
70151;DHT22;57517;43.562;19.540;2022-12-18T07:00:30;154.20;2252.80
70151;DHT22;57517;43.562;19.540;2022-12-18T07:02:55;154.20;2252.80
70151;DHT22;57517;43.562;19.540;2022-12-18T07:05:21;154.20;2252.80
70151;DHT22;57517;43.562;19.540;2022-12-18T07:07:47;154.30;2252.80
70151;DHT22;57517;43.562;19.540;2022-12-18T07:10:13;154.20;2252.80
70151;DHT22;57517;43.562;19.540;2022-12-18T07:12:39;154.20;2252.80
70151;DHT22;57517;43.562;19.540;2022-12-18T07:15:05;154.20;2252.80
70151;DHT22;57517;43.562;19.540;2022-12-18T07:17:31;154.30;2252.80
70151;DHT22;57517;43.562;19.540;2022-12-18T07:19:56;154.30;2252.80
70151;DHT22;57517;43.562;19.540;2022-12-18T07:22:22;154.40;2252.80
70151;DHT22;57517;43.562;19.540;2022-12-18T07:24:51;154.50;2252.80
70151;DHT22;57517;43.562;19.540;2022-12-18T07:27:17;154.40;2252.80
70151;DHT22;57517;43.562;19.540;2022-12-18T07:29:43;154.40;2252.80
70151;DHT22;57517;43.562;19.540;2022-12-18T07:32:08;154.40;2252.80
70151;DHT22;57517;43.562;19.540;2022-12-18T07:34:34;154.30;2252.80
70151;DHT22;57517;43.562;19.540;2022-12-18T07:37:00;154.30;2252.80
70151;DHT22;57517;43.562;19.540;2022-12-18T07:39:26;154.30;2252.80
70151;DHT22;57517;43.562;19.540;2022-12-18T07:41:52;154.30;2252.80
70151;DHT22;57517;43.562;19.540;2022-12-18T07:44:36;154.40;2252.80
70151;DHT22;57517;43.562;19.540;2022-12-18T07:47:03;154.40;2252.80
70151;DHT22;57517;43.562;19.540;2022-12-18T07:49:28;154.40;2252.80
70151;DHT22;57517;43.562;19.540;2022-12-18T07:51:55;154.40;2252.80
70151;DHT22;57517;43.562;19.540;2022-12-18T07:54:22;154.40;2252.80
70151;DHT22;57517;43.562;19.540;2022-12-18T07:56:48;154.40;2252.80
70151;DHT22;57517;43.562;19.540;2022-12-18T07:59:14;154.50;2252.80
70151;DHT22;57517;43.562;19.540;2022-12-18T08:01:40;179.20;2252.80
70151;DHT22;57517;43.562;19.540;2022-12-18T08:04:05;179.20;2252.80
70151;DHT22;57517;43.562;19.540;2022-12-18T08:06:31;179.30;2252.80
70151;DHT22;57517;43.562;19.540;2022-12-18T08:08:57;179.50;2252.80
70151;DHT22;57517;43.562;19.540;2022-12-18T08:11:25;179.70;2252.80
70151;DHT22;57517;43.562;19.540;2022-12-18T08:13:52;179.60;2252.80
70151;DHT22;57517;43.562;19.540;2022-12-18T08:16:18;179.60;2252.80
70151;DHT22;57517;43.562;19.540;2022-12-18T08:18:44;179.50;2252.80
70151;DHT22;57517;43.562;19.540;2022-12-18T08:21:13;179.60;2252.80
70151;DHT22;57517;43.562;19.540;2022-12-18T08:23:40;179.60;2252.80
70151;DHT22;57517;43.562;19.540;2022-12-18T08:26:07;179.60;2252.80
70151;DHT22;57517;43.562;19.540;2022-12-18T08:28:33;179.50;2252.80
70151;DHT22;57517;43.562;19.540;2022-12-18T08:30:59;179.60;2252.80
70151;DHT22;57517;43.562;19.540;2022-12-18T08:33:25;179.60;2252.80
70151;DHT22;57517;43.562;19.540;2022-12-18T08:35:52;179.70;2252.80
70151;DHT22;57517;43.562;19.540;2022-12-18T08:38:18;179.70;2252.80
70151;DHT22;57517;43.562;19.540;2022-12-18T08:40:43;179.70;2252.80
70151;DHT22;57517;43.562;19.540;2022-12-18T08:43:10;179.70;2252.80
70151;DHT22;57517;43.562;19.540;2022-12-18T08:45:55;179.70;2252.80
70151;DHT22;57517;43.562;19.540;2022-12-18T08:48:21;179.80;2252.80
70151;DHT22;57517;43.562;19.540;2022-12-18T08:50:59;179.70;2252.80
70151;DHT22;57517;43.562;19.540;2022-12-18T08:53:25;179.70;2252.80
70151;DHT22;57517;43.562;19.540;2022-12-18T08:55:51;179.70;2252.80
70151;DHT22;57517;43.562;19.540;2022-12-18T08:58:17;179.60;2252.80
70151;DHT22;57517;43.562;19.540;2022-12-18T09:00:43;179.70;2252.80
70151;DHT22;57517;43.562;19.540;2022-12-18T09:03:16;179.70;2252.80
70151;DHT22;57517;43.562;19.540;2022-12-18T09:05:43;179.70;2252.80
70151;DHT22;57517;43.562;19.540;2022-12-18T09:08:09;179.80;2252.80
70151;DHT22;57517;43.562;19.540;2022-12-18T09:10:41;179.90;2252.80
70151;DHT22;57517;43.562;19.540;2022-12-18T09:13:07;179.90;2252.80
70151;DHT22;57517;43.562;19.540;2022-12-18T09:15:33;180.00;2252.80
70151;DHT22;57517;43.562;19.540;2022-12-18T09:17:59;180.00;2252.80
70151;DHT22;57517;43.562;19.540;2022-12-18T09:20:25;180.00;2252.80
70151;DHT22;57517;43.562;19.540;2022-12-18T09:22:53;180.10;2252.80
70151;DHT22;57517;43.562;19.540;2022-12-18T09:25:19;204.80;2252.80
70151;DHT22;57517;43.562;19.540;2022-12-18T09:27:47;204.90;2227.20
70151;DHT22;57517;43.562;19.540;2022-12-18T09:30:13;204.90;2176.00
70151;DHT22;57517;43.562;19.540;2022-12-18T09:32:38;204.90;2201.60
70151;DHT22;57517;43.562;19.540;2022-12-18T09:35:04;205.00;2201.60
70151;DHT22;57517;43.562;19.540;2022-12-18T09:37:30;205.10;2176.00
70151;DHT22;57517;43.562;19.540;2022-12-18T09:39:56;205.10;2176.00
70151;DHT22;57517;43.562;19.540;2022-12-18T09:42:22;205.20;2201.60
70151;DHT22;57517;43.562;19.540;2022-12-18T09:44:53;205.30;2176.00
70151;DHT22;57517;43.562;19.540;2022-12-18T09:47:27;205.40;2150.40
70151;DHT22;57517;43.562;19.540;2022-12-18T09:49:55;205.40;2150.40
70151;DHT22;57517;43.562;19.540;2022-12-18T09:52:37;205.40;2073.60
70151;DHT22;57517;43.562;19.540;2022-12-18T09:57:40;205.70;2073.60
70151;DHT22;57517;43.562;19.540;2022-12-18T10:00:20;205.70;2048.00
70151;DHT22;57517;43.562;19.540;2022-12-18T10:02:47;205.60;2048.00
70151;DHT22;57517;43.562;19.540;2022-12-18T10:05:17;205.50;2048.00
70151;DHT22;57517;43.562;19.540;2022-12-18T10:10:50;205.50;2022.40
70151;DHT22;57517;43.562;19.540;2022-12-18T10:16:15;205.50;2048.00
70151;DHT22;57517;43.562;19.540;2022-12-18T10:22:22;205.50;2022.40
70151;DHT22;57517;43.562;19.540;2022-12-18T10:27:25;205.50;2022.40
70151;DHT22;57517;43.562;19.540;2022-12-18T10:29:52;205.50;2022.40
70151;DHT22;57517;43.562;19.540;2022-12-18T10:32:20;205.50;2022.40
70151;DHT22;57517;43.562;19.540;2022-12-18T10:34:48;205.50;2022.40
70151;DHT22;57517;43.562;19.540;2022-12-18T10:37:19;205.50;1996.80
70151;DHT22;57517;43.562;19.540;2022-12-18T10:39:46;205.50;2048.00
70151;DHT22;57517;43.562;19.540;2022-12-18T10:42:29;205.50;2022.40
70151;DHT22;57517;43.562;19.540;2022-12-18T10:45:08;205.50;2022.40
70151;DHT22;57517;43.562;19.540;2022-12-18T10:47:35;205.60;1996.80
70151;DHT22;57517;43.562;19.540;2022-12-18T10:50:01;205.60;1996.80
70151;DHT22;57517;43.562;19.540;2022-12-18T10:52:27;205.60;1971.20
70151;DHT22;57517;43.562;19.540;2022-12-18T10:54:55;205.50;1996.80
70151;DHT22;57517;43.562;19.540;2022-12-18T10:59:54;205.50;1996.80
70151;DHT22;57517;43.562;19.540;2022-12-18T11:02:34;205.50;2022.40
70151;DHT22;57517;43.562;19.540;2022-12-18T11:05:00;205.40;2022.40
70151;DHT22;57517;43.562;19.540;2022-12-18T11:07:48;205.50;2048.00
70151;DHT22;57517;43.562;19.540;2022-12-18T11:10:19;205.50;2073.60
70151;DHT22;57517;43.562;19.540;2022-12-18T11:12:45;205.60;2022.40
70151;DHT22;57517;43.562;19.540;2022-12-18T11:15:24;205.60;2022.40
70151;DHT22;57517;43.562;19.540;2022-12-18T11:17:52;205.60;2022.40
70151;DHT22;57517;43.562;19.540;2022-12-18T11:20:36;205.60;1996.80
70151;DHT22;57517;43.562;19.540;2022-12-18T11:23:05;205.70;1996.80
70151;DHT22;57517;43.562;19.540;2022-12-18T11:25:32;205.70;1996.80
70151;DHT22;57517;43.562;19.540;2022-12-18T11:29:08;205.70;2048.00
70151;DHT22;57517;43.562;19.540;2022-12-18T11:31:27;205.70;2022.40
70151;DHT22;57517;43.562;19.540;2022-12-18T11:34:13;205.60;1996.80
70151;DHT22;57517;43.562;19.540;2022-12-18T11:36:45;205.70;2022.40
70151;DHT22;57517;43.562;19.540;2022-12-18T11:39:35;205.60;2022.40
70151;DHT22;57517;43.562;19.540;2022-12-18T11:42:23;205.60;2022.40
70151;DHT22;57517;43.562;19.540;2022-12-18T11:44:54;205.50;2022.40
70151;DHT22;57517;43.562;19.540;2022-12-18T11:47:39;205.50;2022.40
70151;DHT22;57517;43.562;19.540;2022-12-18T11:50:16;205.50;2022.40
70151;DHT22;57517;43.562;19.540;2022-12-18T11:52:42;205.50;2048.00
70151;DHT22;57517;43.562;19.540;2022-12-18T11:55:14;205.60;2048.00
70151;DHT22;57517;43.562;19.540;2022-12-18T12:00:40;205.60;2048.00
70151;DHT22;57517;43.562;19.540;2022-12-18T12:03:35;205.60;2048.00
70151;DHT22;57517;43.562;19.540;2022-12-18T12:12:10;205.50;2022.40
70151;DHT22;57517;43.562;19.540;2022-12-18T12:33:35;230.40;1971.20
70151;DHT22;57517;43.562;19.540;2022-12-18T12:38:45;230.50;1971.20
70151;DHT22;57517;43.562;19.540;2022-12-18T12:41:19;230.60;2048.00
70151;DHT22;57517;43.562;19.540;2022-12-18T12:44:08;230.70;1996.80
70151;DHT22;57517;43.562;19.540;2022-12-18T12:46:38;230.80;1971.20
70151;DHT22;57517;43.562;19.540;2022-12-18T12:49:11;230.80;1920.00
70151;DHT22;57517;43.562;19.540;2022-12-18T12:51:41;230.80;1920.00
70151;DHT22;57517;43.562;19.540;2022-12-18T12:54:19;230.80;1894.40
70151;DHT22;57517;43.562;19.540;2022-12-18T13:02:48;230.60;1945.60
70151;DHT22;57517;43.562;19.540;2022-12-18T13:05:21;230.50;1996.80
70151;DHT22;57517;43.562;19.540;2022-12-18T13:08:03;230.50;1971.20
70151;DHT22;57517;43.562;19.540;2022-12-18T13:10:34;230.50;1971.20
70151;DHT22;57517;43.562;19.540;2022-12-18T13:15:48;230.40;2048.00
70151;DHT22;57517;43.562;19.540;2022-12-18T13:18:20;230.40;2073.60
70151;DHT22;57517;43.562;19.540;2022-12-18T13:25:58;205.70;2048.00
70151;DHT22;57517;43.562;19.540;2022-12-18T13:31:13;205.70;2073.60
70151;DHT22;57517;43.562;19.540;2022-12-18T13:33:41;205.70;2022.40
70151;DHT22;57517;43.562;19.540;2022-12-18T13:36:29;205.60;2022.40
70151;DHT22;57517;43.562;19.540;2022-12-18T13:41:40;205.60;2099.20
70151;DHT22;57517;43.562;19.540;2022-12-18T13:44:31;205.60;2048.00
70151;DHT22;57517;43.562;19.540;2022-12-18T13:47:07;205.50;2048.00
70151;DHT22;57517;43.562;19.540;2022-12-18T13:49:50;205.50;2073.60
70151;DHT22;57517;43.562;19.540;2022-12-18T13:52:25;205.30;2099.20
70151;DHT22;57517;43.562;19.540;2022-12-18T13:54:56;205.50;2252.80
70151;DHT22;57517;43.562;19.540;2022-12-18T13:57:37;205.50;2176.00
70151;DHT22;57517;43.562;19.540;2022-12-18T14:00:29;205.50;2124.80
70151;DHT22;57517;43.562;19.540;2022-12-18T14:02:56;205.50;2073.60
70151;DHT22;57517;43.562;19.540;2022-12-18T14:05:35;205.50;2073.60
70151;DHT22;57517;43.562;19.540;2022-12-18T14:08:11;205.50;2048.00
70151;DHT22;57517;43.562;19.540;2022-12-18T14:10:46;205.50;2022.40
70151;DHT22;57517;43.562;19.540;2022-12-18T14:13:16;205.50;2022.40
70151;DHT22;57517;43.562;19.540;2022-12-18T14:15:43;205.50;2048.00
70151;DHT22;57517;43.562;19.540;2022-12-18T14:20:55;205.40;1996.80
70151;DHT22;57517;43.562;19.540;2022-12-18T14:26:01;205.30;1971.20
70151;DHT22;57517;43.562;19.540;2022-12-18T14:28:27;205.30;1996.80
70151;DHT22;57517;43.562;19.540;2022-12-18T14:30:54;205.30;2022.40
70151;DHT22;57517;43.562;19.540;2022-12-18T14:33:25;205.30;2022.40
70151;DHT22;57517;43.562;19.540;2022-12-18T14:36:03;205.30;1996.80
70151;DHT22;57517;43.562;19.540;2022-12-18T14:38:36;205.20;1996.80
70151;DHT22;57517;43.562;19.540;2022-12-18T14:41:15;205.20;1996.80
70151;DHT22;57517;43.562;19.540;2022-12-18T14:43:43;205.20;1945.60
70151;DHT22;57517;43.562;19.540;2022-12-18T14:46:30;205.10;2048.00
70151;DHT22;57517;43.562;19.540;2022-12-18T14:49:00;205.20;2252.80
70151;DHT22;57517;43.562;19.540;2022-12-18T14:51:28;205.30;2252.80
70151;DHT22;57517;43.562;19.540;2022-12-18T14:54:03;205.30;2252.80
70151;DHT22;57517;43.562;19.540;2022-12-18T14:56:32;205.30;2022.40
70151;DHT22;57517;43.562;19.540;2022-12-18T14:59:12;205.20;1945.60
70151;DHT22;57517;43.562;19.540;2022-12-18T15:01:46;205.10;1945.60
70151;DHT22;57517;43.562;19.540;2022-12-18T15:04:31;205.00;1945.60
70151;DHT22;57517;43.562;19.540;2022-12-18T15:07:18;205.00;1971.20
70151;DHT22;57517;43.562;19.540;2022-12-18T15:12:37;204.80;1996.80
70151;DHT22;57517;43.562;19.540;2022-12-18T15:15:04;204.80;2022.40
70151;DHT22;57517;43.562;19.540;2022-12-18T15:17:30;204.80;1996.80
70151;DHT22;57517;43.562;19.540;2022-12-18T15:20:09;204.80;2022.40
70151;DHT22;57517;43.562;19.540;2022-12-18T15:22:36;180.10;2022.40
70151;DHT22;57517;43.562;19.540;2022-12-18T15:25:19;180.10;1996.80
70151;DHT22;57517;43.562;19.540;2022-12-18T15:27:48;180.00;2022.40
70151;DHT22;57517;43.562;19.540;2022-12-18T15:32:44;179.90;2022.40
70151;DHT22;57517;43.562;19.540;2022-12-18T15:35:23;179.90;2022.40
70151;DHT22;57517;43.562;19.540;2022-12-18T15:37:50;179.80;2022.40
70151;DHT22;57517;43.562;19.540;2022-12-18T15:40:18;179.80;2252.80
70151;DHT22;57517;43.562;19.540;2022-12-18T15:42:45;179.80;2073.60
70151;DHT22;57517;43.562;19.540;2022-12-18T15:45:30;179.90;2022.40
70151;DHT22;57517;43.562;19.540;2022-12-18T15:47:55;179.80;1996.80
70151;DHT22;57517;43.562;19.540;2022-12-18T15:50:22;179.80;2022.40
70151;DHT22;57517;43.562;19.540;2022-12-18T15:52:49;179.80;1996.80
70151;DHT22;57517;43.562;19.540;2022-12-18T15:55:25;179.80;2022.40
70151;DHT22;57517;43.562;19.540;2022-12-18T15:58:10;179.70;2048.00
70151;DHT22;57517;43.562;19.540;2022-12-18T16:00:38;179.70;2022.40
70151;DHT22;57517;43.562;19.540;2022-12-18T16:03:04;179.70;2048.00
70151;DHT22;57517;43.562;19.540;2022-12-18T16:05:31;179.70;2022.40
70151;DHT22;57517;43.562;19.540;2022-12-18T16:07:57;179.70;2048.00
70151;DHT22;57517;43.562;19.540;2022-12-18T16:10:24;179.70;2048.00
70151;DHT22;57517;43.562;19.540;2022-12-18T16:12:50;179.70;2048.00
70151;DHT22;57517;43.562;19.540;2022-12-18T16:15:17;179.70;2048.00
70151;DHT22;57517;43.562;19.540;2022-12-18T16:17:44;179.70;2048.00
70151;DHT22;57517;43.562;19.540;2022-12-18T16:20:15;179.70;2048.00
70151;DHT22;57517;43.562;19.540;2022-12-18T16:22:42;179.70;2073.60
70151;DHT22;57517;43.562;19.540;2022-12-18T16:25:22;179.70;2099.20
70151;DHT22;57517;43.562;19.540;2022-12-18T16:27:49;179.70;2099.20
70151;DHT22;57517;43.562;19.540;2022-12-18T16:30:17;179.80;2252.80
70151;DHT22;57517;43.562;19.540;2022-12-18T16:32:44;179.80;2099.20